• Join FlightAware (Why Join?)
  • Login
  • US Flag 
04:38AM EDT


 

Airport Tracker/Info


-or-


 

Live Flight TrackerFlight Track Log ✈ SWA1092 ✈ 08-Jul-2013 ✈ KMAF - KDAL

Flight Track Log - Related Links

Times and Time Zones

All times are in EDT time to prevent confusion due to time zone crossing. See the SWA1092 flight status page for this flight to view local times or setup timezone preferences in your user account.

Time Position Orientation Groundspeed Altitude Reporting Facility
EDT Latitude Longitude Course Direction KTS MPH feet Rate Location/Type
07:11AM 31.9336 -102.0494 82° East 264 304 8,200  Level Fort Worth Center
07:12AM 31.9472 -101.9597 80° East 282 325 10,600 2,940 Climbing Fort Worth Center
07:13AM 31.9636 -101.8528 80° East 307 353 14,100 2,880 Climbing Fort Worth Center
07:14AM 31.9800 -101.7433 80° East 324 373 16,400 2,460 Climbing Fort Worth Center
07:15AM 32.0592 -101.6283 79° East  Level FlightAware Approximate
07:15AM 31.9986 -101.6242 80° East 348 400 19,100  Level Fort Worth Center
07:16AM 32.0708 -101.5135 82° East  Level FlightAware Approximate
07:16AM 32.0131 -101.5047 82° East 361 415 21,800  Level Fort Worth Center
07:17AM 32.0294 -101.3831 81° East 368 423 23,700 1,920 Climbing Fort Worth Center
07:18AM 32.0481 -101.2514 80° East 382 440 25,700 1,920 Climbing Fort Worth Center
07:19AM 32.0644 -101.1222 81° East 394 453 27,600 1,500 Climbing Fort Worth Center
07:20AM 32.0850 -100.9908 80° East 399 459 28,800 1,440 Climbing Fort Worth Center
07:21AM 32.0972 -100.8539 84° East 411 473 30,500 1,740 Climbing Fort Worth Center
07:22AM 32.1175 -100.7172 80° East 417 480 32,300 1,200 Climbing Fort Worth Center
07:23AM 32.1358 -100.5806 81° East 417 480 33,000 300 Climbing Fort Worth Center
07:24AM 32.1517 -100.4439 82° East 422 486 33,000  Level Fort Worth Center
07:25AM 32.1694 -100.3094 81° East 422 486 33,000  Level Fort Worth Center
07:26AM 32.1869 -100.1750 81° East 422 486 33,000  Level Fort Worth Center
07:27AM 32.2047 -100.0381 81° East 422 486 33,000  Level Fort Worth Center
07:28AM 32.2217 -99.9133 81° East 427 491 33,000  Level Fort Worth Center
07:29AM 32.2308 -99.7758 85° East 422 486 33,000  Level Fort Worth Center
07:30AM 32.2269 -99.6383 92° East 422 486 33,000  Level Fort Worth Center
07:31AM 32.2231 -99.4983 92° East 422 486 33,000  Level Fort Worth Center
07:32AM 32.2192 -99.3606 92° East 422 486 33,000  Level Fort Worth Center
07:33AM 32.2147 -99.2231 92° East 422 486 33,000  Level Fort Worth Center
07:34AM 32.2106 -99.0856 92° East 422 486 33,000 -600 Level Fort Worth Center
07:35AM 32.2039 -98.9478 93° East 422 486 31,900 -1,080 Descending Fort Worth Center
07:36AM 32.1992 -98.8103 92° East 422 486 30,900 -960 Descending Fort Worth Center
07:37AM 32.1922 -98.6728 93° East 422 486 30,000 -960 Descending Fort Worth Center
07:38AM 32.1875 -98.5328 92° East 422 486 29,000 -960 Descending Fort Worth Center
07:39AM 32.1822 -98.4000 93° East 415 478 28,100 -1,020 Descending Fort Worth Center
07:40AM 32.1769 -98.2628 93° East 415 478 27,000 -1,800 Descending Fort Worth Center
07:41AM 32.1694 -98.1250 94° East 415 478 24,500 -3,000 Descending Fort Worth Center
07:42AM 32.1933 -97.9878 78° East 396 456 21,100 -2,820 Descending Fort Worth Center
07:43AM 32.2500 -97.8950 54° Northeast 379 436 18,900 -2,340 Descending Fort Worth Center
07:44AM 32.3131 -97.7822 56° Northeast 374 430 16,500 -2,280 Descending Fort Worth Center
07:45AM 32.3653 -97.6939 55° Northeast 369 425 14,400 -2,340 Descending Fort Worth Center
07:46AM 32.4167 -97.6167 52° Northeast 347 399 12,500 -1,980 Descending Dallas / Fort Worth TRACON
07:47AM 32.4667 -97.5167 59° Northeast 326 375 11,000 -780 Descending Dallas / Fort Worth TRACON
07:48AM 32.5167 -97.4500 48° Northeast 295 339 11,000  Level Dallas / Fort Worth TRACON
07:49AM 32.5833 -97.3833 40° Northeast 299 344 11,000  Level Dallas / Fort Worth TRACON
07:50AM 32.6333 -97.3167 48° Northeast 296 341 11,000  Level Dallas / Fort Worth TRACON
07:51AM 32.6833 -97.2333 55° Northeast 292 336 11,000  Level Dallas / Fort Worth TRACON
07:52AM 32.7333 -97.1833 40° Northeast 249 287 11,000 -420 Level Dallas / Fort Worth TRACON
07:52AM 32.8000 -97.1667 12° North 245 282 10,300 -1,320 Descending Dallas / Fort Worth TRACON
07:53AM 32.8667 -97.1833 348° North 243 280 8,600 -1,800 Descending Dallas / Fort Worth TRACON
07:54AM 32.9167 -97.1167 48° Northeast 232 267 6,800 -2,040 Descending Dallas / Fort Worth TRACON
07:56AM 32.9333 -97.0333 77° East 215 247 4,200 -1,500 Descending Dallas / Fort Worth TRACON
07:57AM 32.9167 -96.9833 112° Southeast 152 175 3,600 -1,140 Descending Dallas / Fort Worth TRACON
07:58AM 32.9167 -96.9333 90° East 134 154 1,900 -1,140 Descending Dallas / Fort Worth TRACON
07:59AM 32.8833 -96.9000 140° Southeast 120 138 1,400 -600 Descending Dallas / Fort Worth TRACON
08:01AM 32.8471 -96.8518 108° East  Level Estimated
08:08AM 32.8471 -96.8518 108° East  Level Estimated